createdAt,value
2018-09-20T15:50:43.127Z,26.84
2018-09-20T15:52:26.203Z,26.84
2018-09-20T15:53:26.223Z,26.80
2018-09-20T15:54:26.188Z,26.81
2018-09-20T15:55:26.173Z,26.84
2018-09-20T15:56:26.162Z,26.80
2018-09-20T15:57:26.147Z,26.77
2018-09-20T15:58:26.133Z,26.67
2018-09-20T15:59:26.161Z,26.67
2018-09-20T16:00:26.123Z,26.47
2018-09-20T16:01:26.097Z,26.44
2018-09-20T16:02:26.096Z,26.42
2018-09-20T16:03:26.075Z,26.44
2018-09-20T16:04:26.066Z,26.36
2018-09-20T16:05:26.075Z,26.37
2018-09-20T16:06:26.050Z,26.37
2018-09-20T16:07:26.030Z,26.39
2018-09-20T16:08:26.018Z,26.43
2018-09-20T16:09:26.015Z,26.29
2018-09-20T16:10:26.032Z,26.37
2018-09-20T16:11:25.993Z,26.35
2018-09-20T16:12:25.983Z,26.37
2018-09-20T16:13:25.962Z,26.29
2018-09-20T16:14:26.076Z,26.25
2018-09-20T16:15:25.946Z,26.29
2018-09-20T16:16:25.956Z,26.24
2018-09-20T16:17:25.919Z,26.20
2018-09-20T16:18:25.905Z,26.18
2018-09-20T16:19:25.903Z,26.20
2018-09-20T16:20:25.883Z,26.05
2018-09-20T16:21:25.910Z,26.11
2018-09-20T16:22:25.865Z,26.02
2018-09-20T16:23:25.901Z,25.99
2018-09-20T16:24:25.846Z,25.89
2018-09-20T16:25:25.832Z,25.97
2018-09-20T16:26:25.816Z,25.86
2018-09-20T16:27:25.831Z,25.84
2018-09-20T16:28:25.795Z,25.83
2018-09-20T16:29:25.781Z,25.69
2018-09-20T16:30:25.777Z,25.71
2018-09-20T16:31:25.763Z,25.68
2018-09-20T16:32:25.781Z,25.59
2018-09-20T16:33:25.735Z,25.65
2018-09-20T16:34:25.731Z,25.56
2018-09-20T16:35:25.711Z,25.62
2018-09-20T16:36:25.702Z,25.59
2018-09-20T16:37:25.693Z,25.57
2018-09-20T16:38:25.772Z,25.59
2018-09-20T16:39:25.671Z,25.52
2018-09-20T16:40:25.659Z,25.50
2018-09-20T16:41:25.650Z,25.39
2018-09-20T16:42:25.629Z,25.47
2018-09-20T16:43:25.657Z,25.35
2018-09-20T16:44:25.616Z,25.34
2018-09-20T16:45:25.595Z,25.32
2018-09-20T16:46:25.592Z,25.32
2018-09-20T16:47:25.573Z,25.38
2018-09-20T16:48:25.561Z,25.31
2018-09-20T16:49:25.578Z,25.34
2018-09-20T16:50:25.535Z,25.28
2018-09-20T16:51:25.532Z,25.28
2018-09-20T16:52:25.519Z,25.30
2018-09-20T16:53:25.571Z,25.13
2018-09-20T16:54:25.523Z,25.13
2018-09-20T16:55:25.479Z,25.15
2018-09-20T16:56:25.469Z,25.06
2018-09-20T16:57:25.459Z,25.17
2018-09-20T16:58:25.445Z,24.98
2018-09-20T16:59:25.436Z,25.07
2018-09-20T17:00:25.455Z,25.09
2018-09-20T17:01:25.410Z,25.02
2018-09-20T17:02:25.403Z,24.97
2018-09-20T17:03:25.388Z,24.92
2018-09-20T17:04:25.376Z,24.94
2018-09-20T17:05:25.370Z,24.90
2018-09-20T17:06:25.375Z,24.80
2018-09-20T17:07:25.344Z,24.83
2018-09-20T17:08:25.340Z,24.80
2018-09-20T17:09:25.315Z,24.82
2018-09-20T17:10:25.313Z,24.71
2018-09-20T17:11:25.320Z,24.71
2018-09-20T17:12:25.279Z,24.71
2018-09-20T17:13:25.278Z,24.77
2018-09-20T17:14:25.291Z,24.76
2018-09-20T17:15:25.252Z,24.59
2018-09-20T17:16:25.289Z,24.64
2018-09-20T17:17:25.257Z,24.53
2018-09-20T17:18:25.219Z,24.56
2018-09-20T17:19:25.200Z,24.50
2018-09-20T17:20:25.193Z,24.42
2018-09-20T17:21:25.179Z,24.41
2018-09-20T17:22:25.164Z,24.38
2018-09-20T17:23:25.184Z,24.26
2018-09-20T17:24:25.149Z,24.26
2018-09-20T17:25:25.196Z,24.26
2018-09-20T17:26:25.123Z,24.17
2018-09-20T17:27:25.116Z,24.14
2018-09-20T17:28:25.123Z,24.12
2018-09-20T17:29:25.085Z,24.07
2018-09-20T17:30:25.084Z,24.01
2018-09-20T17:31:25.068Z,23.95
2018-09-20T17:32:25.059Z,23.89
2018-09-20T17:33:25.074Z,23.89
2018-09-20T17:34:25.035Z,23.82
2018-09-20T17:35:25.029Z,23.76
2018-09-20T17:36:25.014Z,23.70
2018-09-20T17:37:25.003Z,23.65
2018-09-20T17:38:24.994Z,23.61
2018-09-20T17:39:25.004Z,23.67
2018-09-20T17:40:24.966Z,23.52
2018-09-20T17:41:24.959Z,23.55
2018-09-20T17:42:24.948Z,23.53
2018-09-20T17:43:24.934Z,23.46
2018-09-20T17:44:24.923Z,23.42
2018-09-20T17:45:24.945Z,23.43
2018-09-20T17:46:24.894Z,23.35
2018-09-20T17:47:24.940Z,23.29
2018-09-20T17:48:24.875Z,23.31
2018-09-20T17:49:24.867Z,23.26
2018-09-20T17:50:24.858Z,23.24
2018-09-20T17:51:24.859Z,23.17
2018-09-20T17:52:24.827Z,23.12
2018-09-20T17:53:24.826Z,23.07
2018-09-20T17:54:24.811Z,23.08
2018-09-20T17:55:24.802Z,22.96
2018-09-20T17:56:24.811Z,22.93
2018-09-20T17:57:24.781Z,22.86
2018-09-20T17:58:24.763Z,22.78
2018-09-20T17:59:24.749Z,22.75
2018-09-20T18:00:24.743Z,22.68
2018-09-20T18:01:24.722Z,22.62
2018-09-20T18:02:24.738Z,22.65
2018-09-20T18:03:24.707Z,22.56
2018-09-20T18:04:24.688Z,22.57
2018-09-20T18:05:24.685Z,22.53
2018-09-20T18:06:24.670Z,22.47
2018-09-20T18:07:24.684Z,22.47
2018-09-20T18:08:24.643Z,22.43
2018-09-20T18:09:24.643Z,22.35
2018-09-20T18:10:24.630Z,22.28
2018-09-20T18:11:24.624Z,22.31
2018-09-20T18:12:24.604Z,22.20
2018-09-20T18:13:24.623Z,22.22
2018-09-20T18:14:24.585Z,22.20
2018-09-20T18:15:24.578Z,22.22
2018-09-20T18:16:24.564Z,22.13
2018-09-20T18:17:24.550Z,22.10
2018-09-20T18:18:24.630Z,22.19
2018-09-20T18:19:24.523Z,22.07
2018-09-20T18:20:24.521Z,22.19
2018-09-20T18:21:24.502Z,22.14
2018-09-20T18:22:24.496Z,22.14
2018-09-20T18:23:24.507Z,22.09
2018-09-20T18:24:24.472Z,22.16
2018-09-20T18:25:24.455Z,22.22
2018-09-20T18:26:24.443Z,22.17
2018-09-20T18:27:24.437Z,22.12
2018-09-20T18:28:24.425Z,22.09
2018-09-20T18:29:24.440Z,22.06
2018-09-20T18:30:24.390Z,22.13
2018-09-20T18:31:24.377Z,22.13
2018-09-20T18:32:24.365Z,22.12
2018-09-20T18:33:24.351Z,22.27
2018-09-20T18:34:24.448Z,22.23
2018-09-20T18:35:24.360Z,22.22
2018-09-20T18:36:24.316Z,22.28
2018-09-20T18:37:24.314Z,22.32
2018-09-20T18:38:24.293Z,22.34
2018-09-20T18:39:24.292Z,22.35
2018-09-20T18:40:24.284Z,22.49
2018-09-20T18:41:24.291Z,22.50
2018-09-20T18:42:24.266Z,22.39
2018-09-20T18:43:24.235Z,22.56
2018-09-20T18:44:24.234Z,22.52
2018-09-20T18:45:24.210Z,22.57
2018-09-20T18:46:24.203Z,22.57
2018-09-20T18:47:24.219Z,22.50
2018-09-20T18:48:24.224Z,22.57
2018-09-20T18:49:24.167Z,22.57
2018-09-20T18:50:24.159Z,22.57
2018-09-20T18:51:24.143Z,22.50
2018-09-20T18:52:24.135Z,22.50
2018-09-20T18:53:24.143Z,22.32
2018-09-20T18:54:24.106Z,22.44
2018-09-20T18:55:24.130Z,22.38
2018-09-20T18:56:24.092Z,22.38
2018-09-20T18:57:24.071Z,22.34
2018-09-20T18:58:24.092Z,22.38
2018-09-20T18:59:24.055Z,22.27
2018-09-20T19:00:24.040Z,22.23
2018-09-20T19:01:24.025Z,22.20
2018-09-20T19:02:24.023Z,22.13
2018-09-20T19:03:24.008Z,22.16
2018-09-20T19:04:24.012Z,22.09
2018-09-20T19:05:23.989Z,22.01
2018-09-20T19:06:23.969Z,22.01
2018-09-20T19:07:23.982Z,21.97
2018-09-20T19:08:23.953Z,22.02
2018-09-20T19:09:23.961Z,21.99
2018-09-20T19:10:23.931Z,22.02
2018-09-20T19:11:23.910Z,22.02
2018-09-20T19:12:23.905Z,22.02
2018-09-20T19:13:23.892Z,22.02
2018-09-20T19:14:23.882Z,21.91
2018-09-20T19:15:23.889Z,21.94
2018-09-20T19:16:23.856Z,21.92
2018-09-20T19:17:23.842Z,21.92
2018-09-20T19:18:23.831Z,21.81
2018-09-20T19:19:23.827Z,21.90
2018-09-20T19:20:23.839Z,21.88
2018-09-20T19:21:23.869Z,21.75
2018-09-20T19:22:23.787Z,21.71
2018-09-20T19:23:23.771Z,21.74
2018-09-20T19:24:23.762Z,21.66
2018-09-20T19:25:23.758Z,21.69
2018-09-20T19:26:23.776Z,21.67
2018-09-20T19:27:23.734Z,21.61
2018-09-20T19:28:23.719Z,21.63
2018-09-20T19:29:23.712Z,21.54
2018-09-20T19:30:23.695Z,21.56
2018-09-20T19:31:23.687Z,21.56
2018-09-20T19:32:23.703Z,21.51
2018-09-20T19:33:23.664Z,21.54
2018-09-20T19:34:23.650Z,21.54
2018-09-20T19:35:23.635Z,21.69
2018-09-20T19:36:23.629Z,21.66
2018-09-20T19:37:23.621Z,21.64
2018-09-20T19:38:23.629Z,21.74
2018-09-20T19:39:23.591Z,21.72
2018-09-20T19:40:23.585Z,21.71
2018-09-20T19:41:23.567Z,21.69
2018-09-20T19:42:23.561Z,21.67
2018-09-20T19:43:23.577Z,21.63
2018-09-20T19:44:23.570Z,21.59
2018-09-20T19:45:23.524Z,21.59
2018-09-20T19:46:23.528Z,21.59
2018-09-20T19:47:23.502Z,21.50
2018-09-20T19:48:23.491Z,21.56
2018-09-20T19:49:23.511Z,21.56
2018-09-20T19:50:23.467Z,21.54
2018-09-20T19:51:23.456Z,21.59
2018-09-20T19:52:23.453Z,21.57
2018-09-20T19:53:23.442Z,21.56
2018-09-20T19:54:23.427Z,21.53
2018-09-20T19:55:23.434Z,21.51
2018-09-20T19:56:23.409Z,21.53
2018-09-20T19:57:23.392Z,21.51
2018-09-20T19:58:23.373Z,21.48
2018-09-20T19:59:23.371Z,21.50
2018-09-20T20:00:23.435Z,21.54
